Time;durP1;ratioP1;P1;durP2;ratioP2;P2;SDS_P1;SDS_P2;PMS_P1;PMS_P2;Temp;Humidity;BMP_temperature;BMP_pressure;BME280_temperature;BME280_humidity;BME280_pressure;Samples;Min_cycle;Max_cycle;Signal;HPM_P1;HPM_P2
2022/03/09 00:01:51;;;;;;;15.90;11.63;;;;;;;6.56;40.48;102183.06;5166092;28;20420;-54
2022/03/09 00:04:23;;;;;;;15.30;11.95;;;;;;;6.55;40.47;102185.78;5169275;28;20446;-54
2022/03/09 00:06:56;;;;;;;17.23;12.02;;;;;;;6.54;40.57;102184.09;5174842;28;20473;-53
2022/03/09 00:09:28;;;;;;;18.63;13.68;;;;;;;6.53;40.50;102185.84;5173332;28;20450;-49
2022/03/09 00:12:03;;;;;;;20.33;13.05;;;;;;;6.50;40.38;102185.19;5181396;28;20448;-53
2022/03/09 00:14:35;;;;;;;19.40;12.50;;;;;;;6.45;40.42;102178.44;5179459;28;20412;-49
2022/03/09 00:17:08;;;;;;;29.48;12.95;;;;;;;6.29;40.57;102169.78;5170488;28;20428;-54
2022/03/09 00:19:40;;;;;;;22.70;12.35;;;;;;;6.31;40.56;102175.78;5169086;28;20416;-51
2022/03/09 00:22:13;;;;;;;19.85;13.10;;;;;;;6.29;40.89;102182.03;5166610;28;20465;-49
2022/03/09 00:24:45;;;;;;;16.70;11.93;;;;;;;6.10;40.80;102153.41;5173815;28;20493;-51
2022/03/09 00:27:19;;;;;;;21.05;12.68;;;;;;;6.27;40.88;102195.25;5176555;28;20509;-53
2022/03/09 00:29:51;;;;;;;17.23;12.05;;;;;;;6.24;41.08;102188.41;5165915;28;20491;-55
2022/03/09 00:32:24;;;;;;;20.00;12.57;;;;;;;5.77;40.92;102123.75;5173945;28;20895;-50
2022/03/09 00:34:56;;;;;;;27.15;12.82;;;;;;;6.21;41.09;102193.00;5167915;28;20968;-48
2022/03/09 00:37:29;;;;;;;20.73;11.90;;;;;;;6.20;40.93;102196.56;5172735;28;20496;-50
2022/03/09 00:40:01;;;;;;;27.52;13.07;;;;;;;6.18;40.95;102194.00;5173208;28;21093;-51
2022/03/09 00:42:38;;;;;;;21.38;12.95;;;;;;;6.13;41.24;102192.56;5179506;28;20798;-50
2022/03/09 00:45:11;;;;;;;28.60;14.30;;;;;;;6.12;40.98;102199.59;5168309;28;20512;-52
2022/03/09 00:47:44;;;;;;;22.90;13.55;;;;;;;6.09;41.07;102204.19;5174164;28;20422;-54
2022/03/09 00:50:17;;;;;;;19.57;13.47;;;;;;;5.96;41.10;102189.16;5180206;28;20422;-54
2022/03/09 00:52:49;;;;;;;20.35;13.00;;;;;;;6.00;41.16;102211.63;5170917;28;20426;-49
2022/03/09 00:55:21;;;;;;;27.42;14.48;;;;;;;5.97;41.19;102211.81;5169462;28;20420;-52
2022/03/09 00:57:55;;;;;;;16.27;11.60;;;;;;;5.96;41.34;102215.38;5170881;28;20443;-49
2022/03/09 01:00:28;;;;;;;19.05;12.57;;;;;;;5.94;41.16;102206.72;5169720;28;20505;-51
2022/03/09 01:03:00;;;;;;;19.13;12.38;;;;;;;5.84;41.33;102197.66;5172756;28;20897;-54
2022/03/09 01:05:33;;;;;;;26.40;12.80;;;;;;;5.86;41.37;102208.94;5168913;28;20515;-48
2022/03/09 01:08:06;;;;;;;18.52;13.15;;;;;;;5.83;41.64;102206.47;5166828;28;20919;-52
2022/03/09 01:10:38;;;;;;;23.05;12.63;;;;;;;5.75;41.75;102209.50;5169858;28;20519;-50
2022/03/09 01:13:12;;;;;;;21.42;12.63;;;;;;;5.79;41.68;102207.56;5173896;28;20768;-49
2022/03/09 01:15:44;;;;;;;18.98;14.10;;;;;;;5.71;41.63;102194.03;5173711;28;20422;-50
2022/03/09 01:18:17;;;;;;;16.38;11.45;;;;;;;5.73;41.45;102206.16;5167312;28;20437;-52
2022/03/09 01:20:50;;;;;;;21.25;12.15;;;;;;;5.71;41.76;102199.28;5176510;28;20781;-53
2022/03/09 01:23:22;;;;;;;15.27;11.65;;;;;;;5.30;41.85;102140.38;5175459;28;20443;-49
2022/03/09 01:25:55;;;;;;;18.98;12.77;;;;;;;5.67;41.71;102201.25;5175572;28;20445;-50
2022/03/09 01:28:28;;;;;;;18.67;12.07;;;;;;;5.67;41.50;102203.03;5174322;28;20724;-53
2022/03/09 01:31:01;;;;;;;17.20;11.63;;;;;;;5.66;41.73;102202.16;5174300;28;20445;-51
2022/03/09 01:33:33;;;;;;;23.55;12.50;;;;;;;5.65;41.72;102212.72;5178796;28;20423;-51
2022/03/09 01:36:06;;;;;;;22.60;13.02;;;;;;;5.48;41.62;102190.06;5175418;28;20423;-53
2022/03/09 01:38:39;;;;;;;23.48;14.75;;;;;;;5.65;41.92;102199.63;5172705;28;20550;-54
2022/03/09 01:41:14;;;;;;;25.15;14.52;;;;;;;5.54;41.86;102182.72;5174431;28;20790;-54
2022/03/09 01:44:06;;;;;;;26.27;14.95;;;;;;;5.34;41.79;102143.66;5172820;28;20413;-51
2022/03/09 01:46:40;;;;;;;27.58;16.05;;;;;;;5.61;41.81;102195.50;5173441;28;20507;-48
2022/03/09 01:49:13;;;;;;;27.83;15.98;;;;;;;5.45;41.91;102164.88;5180084;28;20894;-52
2022/03/09 01:51:47;;;;;;;24.92;13.70;;;;;;;5.60;42.28;102186.75;5175265;28;20408;-51
2022/03/09 01:54:20;;;;;;;26.48;16.27;;;;;;;5.60;42.19;102185.91;5158079;28;20516;-53
2022/03/09 01:56:53;;;;;;;33.08;15.32;;;;;;;5.51;42.25;102169.78;5175816;28;20519;-47
2022/03/09 01:59:27;;;;;;;20.55;13.23;;;;;;;5.52;42.26;102165.38;5172820;28;20883;-58
2022/03/09 02:02:00;;;;;;;22.40;13.02;;;;;;;5.60;42.42;102180.69;5170802;28;20513;-50
2022/03/09 02:04:33;;;;;;;21.95;13.75;;;;;;;5.59;42.41;102182.47;5173501;28;20433;-53
2022/03/09 02:07:09;;;;;;;22.48;14.57;;;;;;;5.58;42.29;102182.56;5174102;28;20427;-50
2022/03/09 02:09:44;;;;;;;23.08;13.82;;;;;;;5.56;42.23;102180.00;5174369;28;20415;-52
2022/03/09 02:12:20;;;;;;;20.95;12.85;;;;;;;5.53;42.24;102175.78;5173661;28;20439;-54
2022/03/09 02:14:55;;;;;;;24.73;15.40;;;;;;;5.56;42.30;102180.00;5171519;28;20399;-53
2022/03/09 02:17:29;;;;;;;23.48;13.52;;;;;;;5.47;42.56;102165.63;5172717;28;20500;-52
2022/03/09 02:20:02;;;;;;;26.48;16.83;;;;;;;5.48;42.34;102175.19;5176104;28;20510;-49
2022/03/09 02:22:39;;;;;;;30.65;17.13;;;;;;;5.46;42.51;102171.81;5171134;28;20443;-51
2022/03/09 02:25:14;;;;;;;34.42;18.65;;;;;;;5.53;42.56;102181.00;5172866;28;20420;-56
2022/03/09 02:27:47;;;;;;;33.25;16.80;;;;;;;5.52;42.48;102179.34;5174726;28;20448;-52
2022/03/09 02:30:20;;;;;;;30.17;17.20;;;;;;;5.46;42.44;102168.34;5166665;28;20484;-52
2022/03/09 02:32:53;;;;;;;26.50;15.30;;;;;;;5.51;42.67;102177.66;5172740;28;20566;-50
2022/03/09 02:35:25;;;;;;;23.42;14.27;;;;;;;5.44;42.38;102168.41;5175291;28;20486;-52
2022/03/09 02:37:59;;;;;;;23.90;14.35;;;;;;;5.49;42.29;102174.25;5178838;28;20910;-52
2022/03/09 02:40:32;;;;;;;22.05;14.35;;;;;;;5.47;42.56;102170.03;5172284;28;20420;-55
2022/03/09 02:43:04;;;;;;;28.17;15.38;;;;;;;5.47;42.70;102176.09;5174968;28;20427;-52
2022/03/09 02:45:37;;;;;;;26.63;14.65;;;;;;;5.47;42.33;102198.84;5152601;28;20426;-52
2022/03/09 02:48:09;;;;;;;28.60;17.02;;;;;;;5.47;42.47;102173.50;5150436;28;23610;-50
2022/03/09 02:50:41;;;;;;;28.15;16.70;;;;;;;5.06;42.33;102113.72;5152727;28;20414;-51
2022/03/09 02:53:15;;;;;;;24.63;15.03;;;;;;;5.47;42.61;102186.59;5153723;28;20415;-49
2022/03/09 02:55:48;;;;;;;27.33;16.17;;;;;;;5.40;42.48;102164.28;5155710;28;20525;-48
2022/03/09 02:58:20;;;;;;;24.55;14.20;;;;;;;5.45;42.32;102177.13;5152652;28;20943;-53
2022/03/09 03:00:53;;;;;;;20.10;12.48;;;;;;;5.43;42.29;102169.34;5150730;28;20416;-49
2022/03/09 03:03:25;;;;;;;22.13;13.80;;;;;;;5.44;42.28;102170.19;5153619;28;20446;-50
2022/03/09 03:05:58;;;;;;;17.10;12.18;;;;;;;5.43;42.19;102164.13;5162885;28;20842;-51
2022/03/09 03:08:33;;;;;;;18.30;12.70;;;;;;;5.43;42.34;102168.50;5152694;28;20513;-52
2022/03/09 03:11:08;;;;;;;18.88;11.77;;;;;;;5.40;42.31;102160.81;5154034;28;20417;-50
2022/03/09 03:13:42;;;;;;;20.25;12.43;;;;;;;5.45;42.41;102169.25;5147075;28;20417;-54
2022/03/09 03:16:14;;;;;;;14.73;11.75;;;;;;;5.45;42.23;102167.50;5152310;28;20783;-53
2022/03/09 03:18:47;;;;;;;14.88;11.82;;;;;;;5.45;41.92;102161.41;5155240;28;20532;-52
2022/03/09 03:21:19;;;;;;;15.48;10.35;;;;;;;5.41;41.97;102152.88;5158356;28;20964;-50
2022/03/09 03:23:53;;;;;;;16.02;11.48;;;;;;;5.30;42.17;102131.66;5148490;28;20435;-52
2022/03/09 03:26:25;;;;;;;16.30;10.75;;;;;;;5.50;42.17;102154.97;5158448;28;20846;-47
2022/03/09 03:28:59;;;;;;;14.60;11.88;;;;;;;5.43;41.93;102148.38;5150783;28;20712;-50
2022/03/09 03:31:31;;;;;;;15.27;11.55;;;;;;;5.53;41.93;102154.81;5151629;28;20424;-51
2022/03/09 03:34:04;;;;;;;15.80;10.48;;;;;;;5.52;41.95;102153.13;5155195;28;20529;-53
2022/03/09 03:36:36;;;;;;;16.35;11.43;;;;;;;5.54;41.94;102164.38;5150988;28;20502;-52
2022/03/09 03:39:10;;;;;;;21.42;12.27;;;;;;;5.53;41.92;102160.03;5151435;28;20506;-54
2022/03/09 03:41:43;;;;;;;22.30;12.00;;;;;;;5.45;41.99;102150.91;5152167;28;20446;-48
2022/03/09 03:44:15;;;;;;;20.98;13.90;;;;;;;5.51;41.86;102156.69;5164174;28;20487;-50
2022/03/09 03:46:48;;;;;;;22.10;13.80;;;;;;;5.49;41.75;102161.16;5174676;28;20429;-49
2022/03/09 03:49:20;;;;;;;23.57;14.63;;;;;;;5.46;41.89;102163.94;5171424;28;20411;-53
2022/03/09 03:51:53;;;;;;;21.95;13.32;;;;;;;5.45;41.91;102159.66;5168636;28;20779;-52
2022/03/09 03:54:26;;;;;;;25.98;14.82;;;;;;;5.44;41.77;102159.72;5172117;28;20582;-51
2022/03/09 03:56:59;;;;;;;23.52;15.25;;;;;;;5.43;41.89;102169.34;5171958;28;20444;-56
2022/03/09 03:59:32;;;;;;;25.17;15.52;;;;;;;5.23;41.71;102131.16;5170040;28;20515;-48
2022/03/09 04:02:04;;;;;;;23.88;13.82;;;;;;;5.38;41.68;102154.81;5179021;28;20429;-47
2022/03/09 04:04:37;;;;;;;30.13;14.50;;;;;;;5.36;41.68;102160.16;5175248;28;20418;-51
2022/03/09 04:07:09;;;;;;;22.42;14.02;;;;;;;5.36;41.65;102170.63;5171941;28;20489;-53
2022/03/09 04:09:43;;;;;;;25.27;14.57;;;;;;;5.35;41.67;102170.69;5173475;28;20936;-54
2022/03/09 04:12:17;;;;;;;20.45;13.73;;;;;;;5.34;41.86;102166.38;5173911;28;20461;-48
2022/03/09 04:14:49;;;;;;;21.73;13.70;;;;;;;5.30;41.82;102170.97;5166972;28;20491;-52
2022/03/09 04:17:22;;;;;;;23.17;13.80;;;;;;;5.27;41.67;102169.34;5160847;28;20917;-55
2022/03/09 04:19:54;;;;;;;24.83;13.48;;;;;;;5.23;41.65;102172.19;5180198;28;20510;-53
2022/03/09 04:22:27;;;;;;;21.88;13.60;;;;;;;5.23;41.65;102173.06;5169389;28;20517;-52
2022/03/09 04:25:00;;;;;;;24.23;14.68;;;;;;;5.18;41.96;102179.47;5175273;28;20510;-59
2022/03/09 04:27:33;;;;;;;23.63;13.15;;;;;;;5.14;41.75;102185.78;5171547;28;20454;-53
2022/03/09 04:30:08;;;;;;;18.75;13.75;;;;;;;5.05;42.11;102167.03;5170404;28;20934;-56
2022/03/09 04:32:40;;;;;;;18.48;12.48;;;;;;;5.05;41.91;102174.03;5170430;28;20956;-50
2022/03/09 04:35:13;;;;;;;16.70;12.10;;;;;;;5.06;42.07;102166.09;5172852;28;20511;-54
2022/03/09 04:37:45;;;;;;;19.23;12.30;;;;;;;5.04;41.93;102170.56;5169660;28;20429;-51
2022/03/09 04:40:19;;;;;;;18.98;12.93;;;;;;;4.90;41.99;102178.31;5174996;28;20456;-56
2022/03/09 04:42:52;;;;;;;21.23;14.23;;;;;;;4.97;42.26;102174.44;5167024;28;20448;-52
2022/03/09 04:45:24;;;;;;;22.02;14.68;;;;;;;4.94;42.42;102169.34;5171236;28;20562;-48
2022/03/09 04:47:57;;;;;;;21.98;14.77;;;;;;;4.91;42.28;102166.91;5178244;28;20419;-50
2022/03/09 04:50:29;;;;;;;23.35;14.98;;;;;;;4.91;42.28;102173.91;5168280;28;20424;-57
2022/03/09 04:53:02;;;;;;;24.00;15.77;;;;;;;4.87;42.19;102165.38;5174634;28;20531;-49
2022/03/09 04:55:36;;;;;;;23.90;16.20;;;;;;;4.85;42.31;102164.59;5172224;28;20452;-52
2022/03/09 04:58:08;;;;;;;28.40;18.15;;;;;;;4.81;42.48;102169.16;5178637;28;20421;-52
2022/03/09 05:00:41;;;;;;;27.55;15.80;;;;;;;4.77;42.30;102166.75;5173170;28;20486;-53
2022/03/09 05:03:13;;;;;;;29.05;16.88;;;;;;;4.77;42.55;102158.91;5180529;28;20502;-47
2022/03/09 05:05:46;;;;;;;28.45;16.20;;;;;;;4.77;42.76;102156.28;5173441;28;20471;-47
2022/03/09 05:08:18;;;;;;;25.10;14.18;;;;;;;4.74;42.68;102153.84;5173340;28;20428;-57
2022/03/09 05:10:52;;;;;;;23.40;14.75;;;;;;;4.72;42.63;102151.31;5170426;28;20526;-56
2022/03/09 05:13:24;;;;;;;23.63;14.15;;;;;;;4.69;42.92;102161.09;5176403;28;20408;-52
2022/03/09 05:15:57;;;;;;;19.17;14.07;;;;;;;4.65;42.66;102155.19;5170259;28;20485;-54
2022/03/09 05:18:29;;;;;;;17.17;12.18;;;;;;;4.61;42.97;102157.13;5172056;28;20503;-54
2022/03/09 05:21:02;;;;;;;16.70;11.95;;;;;;;4.63;43.04;102165.72;5181977;28;20430;-48
2022/03/09 05:23:34;;;;;;;16.90;12.13;;;;;;;4.63;43.15;102168.31;5176378;28;20592;-47
2022/03/09 05:26:08;;;;;;;19.30;12.03;;;;;;;4.65;42.88;102190.97;5178181;28;20436;-52
2022/03/09 05:28:41;;;;;;;20.00;12.38;;;;;;;4.63;42.86;102178.78;5172920;28;20486;-51
2022/03/09 05:31:13;;;;;;;22.63;12.95;;;;;;;4.61;42.88;102172.81;5178401;28;20871;-52
2022/03/09 05:33:46;;;;;;;20.13;11.98;;;;;;;4.61;43.07;102170.19;5184385;28;20407;-51
2022/03/09 05:36:18;;;;;;;23.48;14.15;;;;;;;4.60;43.08;102178.13;5182988;28;20515;-51
2022/03/09 05:38:51;;;;;;;20.10;13.95;;;;;;;4.55;43.07;102174.88;5172347;28;20413;-52
2022/03/09 05:41:24;;;;;;;24.45;15.80;;;;;;;4.54;43.00;102192.34;5174498;28;20933;-52
2022/03/09 05:43:58;;;;;;;30.48;16.90;;;;;;;4.53;43.08;102188.03;5182302;28;20450;-50
2022/03/09 05:46:31;;;;;;;27.10;16.55;;;;;;;4.50;43.01;102193.44;5173281;28;20849;-51
2022/03/09 05:49:04;;;;;;;31.03;17.60;;;;;;;4.40;43.12;102176.50;5165674;28;20408;-55
2022/03/09 05:51:36;;;;;;;31.33;17.55;;;;;;;4.49;43.02;102194.38;5174523;28;20481;-54
2022/03/09 05:54:10;;;;;;;34.10;18.60;;;;;;;4.48;43.05;102194.44;5172376;28;20434;-55
2022/03/09 05:56:44;;;;;;;33.35;18.10;;;;;;;4.45;43.24;102194.59;5170712;28;20497;-50
2022/03/09 05:59:18;;;;;;;28.73;18.85;;;;;;;4.34;43.34;102187.28;5183630;28;20425;-52
2022/03/09 06:01:51;;;;;;;24.30;17.75;;;;;;;4.41;43.17;102199.13;5168513;28;20434;-48
2022/03/09 06:04:23;;;;;;;24.90;15.60;;;;;;;4.32;42.97;102189.97;5176201;28;20413;-48
2022/03/09 06:06:56;;;;;;;37.20;18.30;;;;;;;4.39;43.23;102206.19;5175773;28;20520;-48
2022/03/09 06:09:28;;;;;;;29.95;16.75;;;;;;;4.40;43.38;102207.91;5174433;28;20509;-47
2022/03/09 06:12:03;;;;;;;31.05;16.58;;;;;;;4.26;43.34;102184.19;5170473;28;20433;-50
2022/03/09 06:14:35;;;;;;;25.92;17.02;;;;;;;4.38;43.56;102215.81;5178431;28;20837;-51
2022/03/09 06:17:08;;;;;;;31.02;19.15;;;;;;;4.35;43.38;102213.34;5177511;28;20502;-51
2022/03/09 06:19:41;;;;;;;34.72;19.65;;;;;;;4.34;43.38;102219.50;5176100;28;20413;-52
2022/03/09 06:22:13;;;;;;;37.30;20.25;;;;;;;4.40;43.31;102226.22;5176162;28;20888;-52
2022/03/09 06:24:46;;;;;;;25.48;15.77;;;;;;;4.42;43.47;102231.34;5174133;28;20815;-53
2022/03/09 06:27:20;;;;;;;29.10;17.73;;;;;;;4.41;43.25;102227.91;5184602;28;20816;-53
2022/03/09 06:29:54;;;;;;;28.50;16.92;;;;;;;4.39;43.15;102224.50;5190122;28;20411;-52
2022/03/09 06:32:27;;;;;;;25.98;15.20;;;;;;;4.44;43.14;102230.38;5170426;28;20417;-48
2022/03/09 06:35:01;;;;;;;26.05;14.95;;;;;;;4.45;43.23;102237.28;5168164;28;20414;-51
2022/03/09 06:37:33;;;;;;;23.05;13.75;;;;;;;4.21;43.31;102192.25;5166088;28;20422;-53
2022/03/09 06:40:09;;;;;;;22.73;13.53;;;;;;;4.49;43.34;102228.38;5176864;28;20595;-52
2022/03/09 06:42:42;;;;;;;21.55;12.52;;;;;;;4.53;43.26;102227.28;5173910;28;20448;-47
2022/03/09 06:45:18;;;;;;;25.80;12.07;;;;;;;4.55;43.05;102235.03;5173254;28;20423;-52
2022/03/09 06:47:50;;;;;;;22.10;13.63;;;;;;;4.56;43.17;102235.00;5167880;28;20447;-47
2022/03/09 06:50:23;;;;;;;23.98;13.40;;;;;;;4.65;43.10;102238.09;5171382;28;20439;-55
2022/03/09 06:52:55;;;;;;;23.90;13.32;;;;;;;4.65;43.20;102233.69;5169136;28;20501;-51
2022/03/09 06:55:28;;;;;;;25.20;13.60;;;;;;;4.71;43.05;102228.16;5169343;28;20426;-52
2022/03/09 06:58:02;;;;;;;24.98;14.65;;;;;;;4.76;43.15;102238.38;5174999;28;20521;-50
2022/03/09 07:00:38;;;;;;;24.35;13.20;;;;;;;4.75;43.05;102240.13;5165971;28;20436;-53
2022/03/09 07:03:11;;;;;;;19.40;13.03;;;;;;;4.76;43.15;102244.44;5166933;28;20418;-52
2022/03/09 07:05:43;;;;;;;17.00;11.82;;;;;;;4.78;43.37;102241.75;5168202;28;20891;-55
2022/03/09 07:08:16;;;;;;;17.27;11.35;;;;;;;4.77;43.45;102242.66;5176444;28;20458;-48
2022/03/09 07:10:48;;;;;;;18.92;13.05;;;;;;;4.74;43.47;102229.72;5169951;28;20472;-48
2022/03/09 07:13:22;;;;;;;18.73;13.03;;;;;;;4.85;43.57;102243.13;5164901;28;20488;-53
2022/03/09 07:15:55;;;;;;;20.97;12.40;;;;;;;4.88;43.45;102240.34;5173092;28;20885;-52
2022/03/09 07:18:27;;;;;;;19.63;12.98;;;;;;;4.92;43.54;102244.50;5167523;28;20395;-50
2022/03/09 07:21:00;;;;;;;19.88;12.80;;;;;;;5.37;43.55;102232.56;5172787;28;20421;-50
2022/03/09 07:23:34;;;;;;;20.88;11.98;;;;;;;6.76;42.12;102242.28;5164331;28;20482;-53
2022/03/09 07:26:07;;;;;;;22.80;12.52;;;;;;;8.16;41.10;102237.09;5170105;28;20429;-50
2022/03/09 07:28:41;;;;;;;21.65;11.80;;;;;;;9.56;39.87;102231.09;5175034;28;20986;-52
2022/03/09 07:31:14;;;;;;;20.15;12.20;;;;;;;10.57;38.82;102202.59;5166361;28;20416;-48
2022/03/09 07:33:46;;;;;;;17.92;11.85;;;;;;;11.21;38.34;102195.94;5173347;28;20415;-51
2022/03/09 07:36:19;;;;;;;20.65;12.32;;;;;;;12.20;37.82;102230.31;5172331;28;20418;-50
2022/03/09 07:38:51;;;;;;;20.00;12.65;;;;;;;12.87;36.96;102221.13;5174214;28;20415;-49
2022/03/09 07:41:24;;;;;;;22.38;13.02;;;;;;;13.55;36.60;102225.94;5165949;28;20510;-50
2022/03/09 07:43:58;;;;;;;22.93;12.77;;;;;;;14.46;35.83;102232.75;5172630;28;20423;-52
2022/03/09 07:46:30;;;;;;;16.55;12.25;;;;;;;15.33;35.05;102236.19;5177565;28;20500;-53
2022/03/09 07:49:04;;;;;;;22.97;13.37;;;;;;;16.00;34.46;102228.84;5164570;28;20421;-51
2022/03/09 07:51:37;;;;;;;20.65;11.77;;;;;;;16.79;33.74;102233.38;5170749;28;20415;-51
2022/03/09 07:54:09;;;;;;;22.40;12.30;;;;;;;17.41;33.21;102236.69;5163560;28;20817;-53
2022/03/09 07:56:42;;;;;;;22.75;12.93;;;;;;;17.60;32.89;102229.44;5166624;28;20425;-52
2022/03/09 07:59:16;;;;;;;22.15;13.48;;;;;;;18.06;32.14;102229.91;5165721;28;20502;-47
2022/03/09 08:01:52;;;;;;;24.15;14.38;;;;;;;18.13;32.16;102230.91;5169834;28;20431;-48
2022/03/09 08:04:26;;;;;;;27.83;13.73;;;;;;;18.24;31.98;102243.09;5163914;28;20841;-52
2022/03/09 08:06:58;;;;;;;31.70;16.08;;;;;;;18.20;32.01;102226.56;5164647;28;20481;-55
2022/03/09 08:09:31;;;;;;;25.85;15.85;;;;;;;18.58;31.57;102232.22;5164602;28;20411;-47
2022/03/09 08:12:04;;;;;;;22.80;13.38;;;;;;;18.83;31.18;102233.09;5169283;28;20700;-53
2022/03/09 08:14:39;;;;;;;25.25;14.90;;;;;;;18.92;30.99;102231.22;5171481;28;20463;-50
2022/03/09 08:17:12;;;;;;;26.05;13.55;;;;;;;19.30;30.48;102233.13;5170945;28;20432;-56
2022/03/09 08:19:44;;;;;;;20.30;13.10;;;;;;;19.54;30.11;102242.03;5168076;28;20461;-47
2022/03/09 08:22:17;;;;;;;23.17;14.30;;;;;;;19.68;29.90;102227.09;5168970;28;20498;-53
2022/03/09 08:24:51;;;;;;;21.98;13.73;;;;;;;20.08;29.50;102238.59;5162124;28;20450;-53
2022/03/09 08:27:23;;;;;;;21.83;13.73;;;;;;;20.37;29.21;102243.22;5163116;28;20453;-53
2022/03/09 08:29:57;;;;;;;20.00;12.80;;;;;;;20.39;28.95;102249.25;5168243;28;20440;-58
2022/03/09 08:32:30;;;;;;;28.52;14.93;;;;;;;20.42;28.75;102256.94;5169121;28;20428;-56
2022/03/09 08:35:02;;;;;;;24.15;13.05;;;;;;;20.04;28.79;102219.34;5170798;28;20415;-48
2022/03/09 08:37:35;;;;;;;27.13;14.60;;;;;;;20.16;28.83;102250.09;5163426;28;20539;-53
2022/03/09 08:40:08;;;;;;;29.25;15.82;;;;;;;20.48;28.51;102245.47;5164754;28;20464;-58
2022/03/09 08:42:41;;;;;;;24.27;14.73;;;;;;;20.82;28.18;102241.50;5168171;28;20409;-57
2022/03/09 08:45:15;;;;;;;27.83;15.13;;;;;;;20.93;27.88;102249.09;5145728;28;20432;-52
2022/03/09 08:47:47;;;;;;;23.40;13.67;;;;;;;20.86;27.64;102248.16;5145698;28;20467;-58
2022/03/09 08:50:20;;;;;;;27.65;15.35;;;;;;;20.58;27.85;102229.97;5143756;28;20901;-53
2022/03/09 08:52:56;;;;;;;21.97;13.83;;;;;;;20.81;27.51;102261.31;5145757;28;20412;-54
2022/03/09 08:55:29;;;;;;;19.30;12.90;;;;;;;21.11;27.24;102254.94;5146192;28;20531;-49
2022/03/09 08:58:55;;;;;;;21.67;12.30;;;;;;;21.06;27.34;102251.13;5151724;28;21132;-54
2022/03/09 09:01:29;;;;;;;20.45;12.18;;;;;;;20.73;27.45;102255.00;5148185;28;20435;-54
2022/03/09 09:04:02;;;;;;;21.63;12.65;;;;;;;20.25;27.71;102257.06;5153688;28;20455;-51
2022/03/09 09:06:35;;;;;;;20.67;12.02;;;;;;;20.07;27.55;102258.34;5149209;28;20468;-47
2022/03/09 09:09:07;;;;;;;19.30;11.63;;;;;;;19.91;27.96;102261.97;5146227;28;20549;-51
2022/03/09 09:11:40;;;;;;;24.27;13.88;;;;;;;19.53;28.11;102245.72;5151950;28;20455;-52
2022/03/09 09:14:13;;;;;;;22.27;12.85;;;;;;;19.35;28.43;102254.88;5146285;28;20467;-51
2022/03/09 09:16:47;;;;;;;24.73;13.45;;;;;;;19.06;28.86;102259.97;5146729;28;20551;-53
2022/03/09 09:19:19;;;;;;;23.45;13.43;;;;;;;18.67;28.99;102244.59;5149217;28;20954;-55
2022/03/09 09:21:52;;;;;;;21.98;13.68;;;;;;;18.46;29.35;102241.59;5146280;28;20490;-54
2022/03/09 09:24:24;;;;;;;20.25;12.10;;;;;;;18.30;29.71;102242.44;5150604;28;21092;-57
2022/03/09 09:26:57;;;;;;;20.63;13.05;;;;;;;18.13;29.95;102225.56;5151660;28;20478;-54
2022/03/09 09:29:30;;;;;;;19.83;13.07;;;;;;;18.01;29.92;102232.22;5152615;28;20974;-54
2022/03/09 09:32:05;;;;;;;25.65;13.68;;;;;;;17.89;30.35;102240.53;5148968;28;20659;-48
2022/03/09 09:34:37;;;;;;;22.10;13.18;;;;;;;17.45;30.48;102216.69;5155085;28;20495;-52
2022/03/09 09:37:10;;;;;;;26.60;14.20;;;;;;;17.16;31.05;102248.28;5151714;28;20523;-55
2022/03/09 09:39:43;;;;;;;24.20;13.65;;;;;;;16.78;31.72;102255.69;5140802;28;20557;-49
2022/03/09 09:42:16;;;;;;;23.00;13.75;;;;;;;16.34;31.94;102258.31;5149935;28;20416;-52
2022/03/09 09:44:49;;;;;;;22.95;13.27;;;;;;;15.97;32.27;102253.94;5167753;28;20816;-52
2022/03/09 09:47:23;;;;;;;28.08;14.57;;;;;;;15.50;32.70;102243.41;5170181;28;20548;-51
2022/03/09 09:49:57;;;;;;;25.60;14.35;;;;;;;14.91;32.86;102204.69;5173841;28;20580;-52
2022/03/09 09:52:32;;;;;;;25.95;15.95;;;;;;;15.06;32.84;102251.16;5172486;28;20463;-55
2022/03/09 09:55:07;;;;;;;30.83;17.33;;;;;;;14.83;32.90;102263.09;5173069;28;20415;-52
2022/03/09 09:57:40;;;;;;;26.67;16.25;;;;;;;14.51;32.97;102259.78;5177145;28;20611;-52
2022/03/09 10:00:13;;;;;;;30.35;16.23;;;;;;;14.22;33.12;102259.75;5176003;28;20431;-53
2022/03/09 10:02:48;;;;;;;26.70;17.40;;;;;;;13.98;33.07;102265.44;5173916;28;20477;-51
2022/03/09 10:05:20;;;;;;;28.48;16.75;;;;;;;13.87;33.01;102262.06;5173462;28;20514;-51
2022/03/09 10:08:14;;;;;;;27.27;16.20;;;;;;;13.73;32.95;102258.81;5171026;28;20433;-53
2022/03/09 10:10:57;;;;;;;34.95;19.08;;;;;;;13.59;32.90;102259.19;5172199;28;20443;-51
2022/03/09 10:13:32;;;;;;;38.67;21.20;;;;;;;13.44;32.96;102241.94;5177537;28;20427;-51
2022/03/09 10:16:11;;;;;;;31.27;18.23;;;;;;;13.43;32.79;102253.56;5169272;28;20558;-50
2022/03/09 10:18:51;;;;;;;28.73;16.92;;;;;;;13.41;32.80;102247.53;5172942;28;20428;-51
2022/03/09 10:21:26;;;;;;;27.15;16.33;;;;;;;13.33;32.84;102253.50;5171744;28;20718;-53
2022/03/09 10:24:01;;;;;;;26.25;15.43;;;;;;;13.14;33.05;102262.19;5171632;28;20414;-54
2022/03/09 10:26:48;;;;;;;26.98;15.32;;;;;;;13.11;33.01;102255.34;5174108;28;20499;-50
2022/03/09 10:29:21;;;;;;;29.30;17.52;;;;;;;13.06;33.13;102252.22;5173972;28;20433;-47
2022/03/09 10:31:59;;;;;;;29.15;15.77;;;;;;;12.97;33.24;102252.19;5166825;28;20428;-53
2022/03/09 10:34:37;;;;;;;35.47;17.13;;;;;;;13.00;33.18;102257.22;5174023;28;20763;-54
2022/03/09 10:37:09;;;;;;;35.78;17.10;;;;;;;12.74;33.24;102199.31;5173718;28;20426;-53
2022/03/09 10:39:41;;;;;;;27.97;16.37;;;;;;;13.19;33.05;102252.00;5173440;28;20415;-52
2022/03/09 10:42:25;;;;;;;30.77;17.48;;;;;;;13.19;33.07;102244.06;5177502;28;20903;-55
2022/03/09 10:45:00;;;;;;;28.88;17.48;;;;;;;13.30;32.89;102249.31;5167791;28;20733;-52
2022/03/09 10:47:37;;;;;;;27.95;17.10;;;;;;;13.37;32.93;102250.44;5176320;28;20617;-49
2022/03/09 10:50:18;;;;;;;33.33;18.65;;;;;;;13.40;32.86;102238.72;5170190;28;20798;-52
2022/03/09 10:52:53;;;;;;;33.05;18.63;;;;;;;13.42;32.85;102243.91;5167970;28;20546;-49
2022/03/09 10:55:32;;;;;;;33.25;18.67;;;;;;;13.48;32.93;102238.06;5168692;28;20434;-54
2022/03/09 10:58:11;;;;;;;35.38;20.00;;;;;;;13.44;33.12;102241.94;5173353;28;20417;-52
2022/03/09 11:00:47;;;;;;;29.33;18.98;;;;;;;13.52;32.96;102236.81;5166891;28;20894;-54
2022/03/09 11:03:22;;;;;;;30.02;17.52;;;;;;;13.55;32.86;102236.56;5170703;28;20498;-53
2022/03/09 11:05:57;;;;;;;31.25;17.83;;;;;;;13.64;32.66;102238.41;5168546;28;20422;-53
2022/03/09 11:08:34;;;;;;;30.97;19.40;;;;;;;13.68;32.67;102241.63;5169974;28;20419;-54
2022/03/09 11:11:09;;;;;;;30.17;18.25;;;;;;;13.27;32.88;102220.38;5173231;28;20415;-51
2022/03/09 11:13:42;;;;;;;31.35;19.92;;;;;;;13.67;32.93;102242.59;5173392;28;20918;-56
2022/03/09 11:16:14;;;;;;;30.60;18.35;;;;;;;13.59;32.98;102238.81;5167391;28;20417;-53
2022/03/09 11:18:48;;;;;;;34.90;20.37;;;;;;;13.61;32.95;102246.63;5154823;28;20419;-53
2022/03/09 11:21:22;;;;;;;34.33;19.95;;;;;;;13.48;32.93;102207.06;5161048;28;20997;-57
2022/03/09 11:23:54;;;;;;;34.05;19.10;;;;;;;13.74;32.95;102235.75;5163015;28;20508;-55
2022/03/09 11:26:30;;;;;;;34.08;18.63;;;;;;;13.84;32.76;102240.13;5169345;28;20782;-53
2022/03/09 11:29:06;;;;;;;36.80;19.30;;;;;;;13.99;32.56;102239.72;5171920;28;20473;-55
2022/03/09 11:31:49;;;;;;;32.40;19.47;;;;;;;13.91;32.57;102210.38;5166312;28;20424;-58
2022/03/09 11:34:41;;;;;;;31.45;19.55;;;;;;;14.14;32.50;102237.50;5169675;28;20911;-52
2022/03/09 11:37:18;;;;;;;30.77;18.98;;;;;;;14.03;32.22;102215.41;5170821;28;20412;-53
2022/03/09 11:40:13;;;;;;;35.65;21.30;;;;;;;14.24;32.55;102239.16;5159113;28;20435;-53
2022/03/09 11:42:46;;;;;;;36.13;19.27;;;;;;;14.24;32.42;102233.03;5163961;28;20420;-54
2022/03/09 11:45:39;;;;;;;34.65;20.27;;;;;;;14.27;32.54;102232.75;5168780;28;20966;-57